createdAt,value
2023-02-22T00:03:16.169Z,7.18
2023-02-22T00:08:19.721Z,6.95
2023-02-22T00:13:25.322Z,6.28
2023-02-22T00:18:30.452Z,6.18
2023-02-22T00:23:35.137Z,5.80
2023-02-22T00:28:42.475Z,6.15
2023-02-22T00:33:46.253Z,7.00
2023-02-22T00:38:49.678Z,5.82
2023-02-22T00:43:55.153Z,7.32
2023-02-22T00:48:58.550Z,7.43
2023-02-22T00:54:02.289Z,7.55
2023-02-22T00:59:07.046Z,8.52
2023-02-22T01:04:10.883Z,10.38
2023-02-22T01:09:14.476Z,12.60
2023-02-22T01:14:21.113Z,11.48
2023-02-22T01:19:24.941Z,12.15
2023-02-22T01:24:28.443Z,10.60
2023-02-22T01:29:34.351Z,9.80
2023-02-22T01:34:37.784Z,8.23
2023-02-22T01:39:41.443Z,6.80
2023-02-22T01:44:46.241Z,7.47
2023-02-22T01:49:51.794Z,6.78
2023-02-22T01:55:00.159Z,7.22
2023-02-22T02:00:11.027Z,7.95
2023-02-22T02:05:15.001Z,7.50
2023-02-22T02:10:19.038Z,7.10
2023-02-22T02:15:28.960Z,6.18
2023-02-22T02:20:41.695Z,6.85
2023-02-22T02:26:25.145Z,7.45
2023-02-22T02:31:58.396Z,6.88
2023-02-22T02:37:11.108Z,7.77
2023-02-22T02:42:19.436Z,6.38
2023-02-22T02:47:28.965Z,6.57
2023-02-22T02:52:35.787Z,7.22
2023-02-22T02:57:39.984Z,7.20
2023-02-22T03:02:58.944Z,7.40
2023-02-22T03:08:10.922Z,7.57
2023-02-22T03:13:20.392Z,6.70
2023-02-22T03:18:30.840Z,7.18
2023-02-22T03:23:40.743Z,6.93
2023-02-22T03:28:47.921Z,6.47
2023-02-22T03:33:57.553Z,7.97
2023-02-22T03:39:04.339Z,7.95
2023-02-22T03:44:10.470Z,6.93
2023-02-22T03:49:21.169Z,6.75
2023-02-22T03:54:24.748Z,7.60
2023-02-22T03:59:29.448Z,7.88
2023-02-22T04:04:34.413Z,6.55
2023-02-22T04:09:38.320Z,7.35
2023-02-22T04:14:42.218Z,6.20
2023-02-22T04:19:47.109Z,6.47
2023-02-22T04:24:50.586Z,6.20
2023-02-22T04:29:54.184Z,6.35
2023-02-22T04:34:59.251Z,6.05
2023-02-22T04:40:02.760Z,4.75
2023-02-22T04:45:08.456Z,5.38
2023-02-22T04:50:14.592Z,6.35
2023-02-22T04:55:18.373Z,5.78
2023-02-22T05:00:22.641Z,5.82
2023-02-22T05:05:27.478Z,6.80
2023-02-22T05:10:30.918Z,6.15
2023-02-22T05:15:34.385Z,6.53
2023-02-22T05:20:39.357Z,5.68
2023-02-22T05:25:43.406Z,6.40
2023-02-22T05:30:46.964Z,5.22
2023-02-22T05:35:51.808Z,5.80
2023-02-22T05:40:55.336Z,6.63
2023-02-22T05:45:58.796Z,5.78
2023-02-22T05:51:04.509Z,6.60
2023-02-22T05:56:08.240Z,8.98
2023-02-22T06:01:11.626Z,8.65
2023-02-22T06:06:17.132Z,7.00
2023-02-22T06:11:20.920Z,7.25
2023-02-22T06:16:24.760Z,6.53
2023-02-22T06:21:29.880Z,6.05
2023-02-22T06:26:33.362Z,6.10
2023-02-22T06:31:37.531Z,7.28
2023-02-22T06:36:43.050Z,6.50
2023-02-22T06:41:47.916Z,8.25
2023-02-22T06:46:52.384Z,7.10
2023-02-22T06:51:57.416Z,7.68
2023-02-22T06:57:01.301Z,9.32
2023-02-22T07:02:04.928Z,7.93
2023-02-22T07:07:09.657Z,8.13
2023-02-22T07:12:13.103Z,9.98
2023-02-22T07:17:16.759Z,7.82
2023-02-22T07:22:21.574Z,8.00
2023-02-22T07:27:25.330Z,8.80
2023-02-22T07:32:29.119Z,9.18
2023-02-22T07:37:34.103Z,10.77
2023-02-22T07:42:55.502Z,11.13
2023-02-22T07:47:59.532Z,10.60
2023-02-22T07:53:07.202Z,10.68
2023-02-22T07:58:13.487Z,10.68
2023-02-22T08:03:18.709Z,9.07
2023-02-22T08:08:24.381Z,9.05
2023-02-22T08:13:27.923Z,8.88
2023-02-22T08:18:31.407Z,8.82
2023-02-22T08:23:36.158Z,9.73
2023-02-22T08:28:39.967Z,9.25
2023-02-22T08:33:43.549Z,8.15
2023-02-22T08:38:48.533Z,7.78
2023-02-22T08:43:52.554Z,8.80
2023-02-22T08:48:56.506Z,10.15
2023-02-22T08:54:01.590Z,9.07
2023-02-22T08:59:05.013Z,9.55
2023-02-22T09:04:08.726Z,7.38
2023-02-22T09:09:13.966Z,7.20
2023-02-22T09:14:18.087Z,7.85
2023-02-22T09:19:21.843Z,7.88
2023-02-22T09:24:27.259Z,7.43
2023-02-22T09:29:31.605Z,7.10
2023-02-22T09:34:35.403Z,7.18
2023-02-22T09:39:40.517Z,6.47
2023-02-22T09:44:49.196Z,5.68
2023-02-22T09:50:02.436Z,5.88
2023-02-22T10:00:23.744Z,6.20
2023-02-22T10:05:33.836Z,6.03
2023-02-22T10:10:40.780Z,6.25
2023-02-22T10:15:51.540Z,5.82
2023-02-22T10:20:58.062Z,5.88
2023-02-22T10:26:16.425Z,6.72
2023-02-22T10:31:26.035Z,6.65
2023-02-22T10:36:29.916Z,6.25
2023-02-22T10:41:38.912Z,5.95
2023-02-22T10:46:44.518Z,5.57
2023-02-22T10:51:49.640Z,5.22
2023-02-22T10:56:56.467Z,5.88
2023-02-22T11:02:00.189Z,5.60
2023-02-22T11:07:19.033Z,7.30
2023-02-22T11:12:29.997Z,5.03
2023-02-22T11:17:35.693Z,5.75
2023-02-22T11:22:42.230Z,5.10
2023-02-22T11:27:47.912Z,6.07
2023-02-22T11:32:55.943Z,6.85
2023-02-22T11:38:12.762Z,5.07
2023-02-22T11:43:20.042Z,5.35
2023-02-22T11:48:23.567Z,4.78
2023-02-22T11:53:38.280Z,6.50
2023-02-22T11:58:49.633Z,5.05
2023-02-22T12:04:24.497Z,5.20
2023-02-22T12:09:36.765Z,6.35
2023-02-22T12:14:54.949Z,5.00
2023-02-22T12:20:07.743Z,5.03
2023-02-22T12:25:22.775Z,5.97
2023-02-22T12:30:30.452Z,4.78
2023-02-22T12:35:36.646Z,5.68
2023-02-22T12:40:47.090Z,4.13
2023-02-22T12:45:59.283Z,4.53
2023-02-22T12:51:12.861Z,4.55
2023-02-22T12:56:22.331Z,4.75
2023-02-22T13:01:34.074Z,4.90
2023-02-22T13:06:46.547Z,4.45
2023-02-22T13:11:59.499Z,3.70
2023-02-22T13:17:10.788Z,4.75
2023-02-22T13:22:20.961Z,4.28
2023-02-22T13:27:28.998Z,4.20
2023-02-22T13:32:51.470Z,4.47
2023-02-22T13:38:20.000Z,5.65
2023-02-22T13:43:50.264Z,5.25
2023-02-22T13:49:19.650Z,3.92
2023-02-22T13:54:29.797Z,4.07
2023-02-22T13:59:36.355Z,3.80
2023-02-22T14:04:44.680Z,4.35
2023-02-22T14:09:49.935Z,3.38
2023-02-22T14:15:28.779Z,3.55
2023-02-22T14:20:36.939Z,4.45
2023-02-22T14:25:43.158Z,5.03
2023-02-22T14:30:46.647Z,4.65
2023-02-22T14:35:52.581Z,3.95
2023-02-22T14:40:59.656Z,3.78
2023-02-22T14:46:05.448Z,4.18
2023-02-22T14:51:21.795Z,3.85
2023-02-22T14:56:30.569Z,3.97
2023-02-22T15:07:08.894Z,3.72
2023-02-22T15:12:18.708Z,3.80
2023-02-22T15:17:26.001Z,3.45
2023-02-22T15:22:37.621Z,3.17
2023-02-22T15:27:47.578Z,3.60
2023-02-22T15:33:04.237Z,3.13
2023-02-22T15:38:35.842Z,3.90
2023-02-22T15:43:43.041Z,3.42
2023-02-22T15:49:26.097Z,3.70
2023-02-22T15:54:50.948Z,4.70
2023-02-22T16:00:00.597Z,4.03
2023-02-22T16:05:09.063Z,3.92
2023-02-22T16:10:40.086Z,4.60
2023-02-22T16:15:57.427Z,5.65
2023-02-22T16:21:13.267Z,5.55
2023-02-22T16:26:28.557Z,5.72
2023-02-22T16:37:22.225Z,7.53
2023-02-22T16:42:30.831Z,8.13
2023-02-22T16:47:34.780Z,7.80
2023-02-22T16:52:41.129Z,8.60
2023-02-22T16:57:46.987Z,7.18
2023-02-22T17:02:50.690Z,6.05
2023-02-22T17:07:54.501Z,5.38
2023-02-22T17:13:07.244Z,7.15
2023-02-22T17:18:22.864Z,7.72
2023-02-22T17:23:28.642Z,7.45
2023-02-22T17:28:36.621Z,8.35
2023-02-22T17:33:40.654Z,6.97
2023-02-22T17:38:44.098Z,6.53
2023-02-22T17:43:49.232Z,6.10
2023-02-22T17:48:54.980Z,6.05
2023-02-22T17:53:58.595Z,7.38
2023-02-22T17:59:03.341Z,6.50
2023-02-22T18:04:07.228Z,7.47
2023-02-22T18:09:11.368Z,6.45
2023-02-22T18:14:16.137Z,5.70
2023-02-22T18:19:22.088Z,5.53
2023-02-22T18:24:26.603Z,6.10
2023-02-22T18:29:31.408Z,7.80
2023-02-22T18:34:34.826Z,9.38
2023-02-22T18:39:42.829Z,12.30
2023-02-22T18:44:47.602Z,11.38
2023-02-22T18:49:51.380Z,11.32
2023-02-22T18:54:54.835Z,12.32
2023-02-22T18:59:59.667Z,11.65
2023-02-22T19:05:03.923Z,12.07
2023-02-22T19:10:08.708Z,12.85
2023-02-22T19:15:13.728Z,12.52
2023-02-22T19:20:17.458Z,12.40
2023-02-22T19:25:21.589Z,12.43
2023-02-22T19:30:27.790Z,10.75
2023-02-22T19:35:31.852Z,12.25
2023-02-22T19:40:35.441Z,11.20
2023-02-22T19:45:41.836Z,11.70
2023-02-22T19:50:49.814Z,11.93
2023-02-22T19:55:53.395Z,10.27
2023-02-22T20:00:59.070Z,10.85
2023-02-22T20:06:02.574Z,9.55
2023-02-22T20:11:07.093Z,9.23
2023-02-22T20:16:15.614Z,9.18
2023-02-22T20:21:22.846Z,9.80
2023-02-22T20:26:28.192Z,10.35
2023-02-22T20:31:34.136Z,10.98
2023-02-22T20:36:40.142Z,9.43
2023-02-22T20:41:46.217Z,10.48
2023-02-22T20:46:50.982Z,10.68
2023-02-22T20:51:54.752Z,10.50
2023-02-22T20:56:58.204Z,10.85
2023-02-22T21:02:03.487Z,11.40
2023-02-22T21:07:06.927Z,12.02
2023-02-22T21:12:13.534Z,11.27
2023-02-22T21:17:25.722Z,12.35
2023-02-22T21:22:30.199Z,10.95
2023-02-22T21:27:33.833Z,14.05
2023-02-22T21:32:38.646Z,11.25
2023-02-22T21:37:43.742Z,11.77
2023-02-22T21:42:49.005Z,11.30
2023-02-22T21:47:54.697Z,12.25
2023-02-22T21:52:59.161Z,12.45
2023-02-22T21:58:02.797Z,13.15
2023-02-22T22:03:12.722Z,13.48
2023-02-22T22:08:19.647Z,12.80
2023-02-22T22:13:23.256Z,13.10
2023-02-22T22:18:27.992Z,11.55
2023-02-22T22:23:31.482Z,12.70
2023-02-22T22:28:34.836Z,14.20
2023-02-22T22:33:42.201Z,12.77
2023-02-22T22:38:47.411Z,12.43
2023-02-22T22:43:52.546Z,13.10
2023-02-22T22:48:58.294Z,12.95
2023-02-22T22:54:01.771Z,12.80
2023-02-22T22:59:08.369Z,15.40
2023-02-22T23:04:17.207Z,13.25
2023-02-22T23:09:23.618Z,13.32
2023-02-22T23:14:31.190Z,14.48
2023-02-22T23:19:37.597Z,15.00
2023-02-22T23:24:42.411Z,14.52
2023-02-22T23:29:47.001Z,14.52
2023-02-22T23:34:51.928Z,14.95
2023-02-22T23:39:55.423Z,14.32
2023-02-22T23:45:00.879Z,16.35
2023-02-22T23:50:13.581Z,16.10
2023-02-22T23:55:20.600Z,16.10
